sensor_id;sensor_type;location;lat;lon;timestamp;P1;durP1;ratioP1;P2;durP2;ratioP2
26824;SDS011;14402;48.178;11.566;2023-01-01T00:17:13;111.2;;;84.0;;
26824;SDS011;14402;48.178;11.566;2023-01-01T00:17:42;111.2;;;84.0;;
26824;SDS011;14402;48.178;11.566;2023-01-01T00:18:12;97.4;;;73.6;;
26824;SDS011;14402;48.178;11.566;2023-01-01T00:18:42;83.7;;;63.2;;
26824;SDS011;14402;48.178;11.566;2023-01-01T00:19:12;83.7;;;63.2;;
26824;SDS011;14402;48.178;11.566;2023-01-01T00:19:43;83.7;;;63.2;;
26824;SDS011;14402;48.178;11.566;2023-01-01T00:20:13;76.1;;;58.0;;
26824;SDS011;14402;48.178;11.566;2023-01-01T00:20:43;68.6;;;52.7;;
26824;SDS011;14402;48.178;11.566;2023-01-01T00:21:13;68.6;;;52.7;;
26824;SDS011;14402;48.178;11.566;2023-01-01T00:21:43;68.6;;;52.7;;
26824;SDS011;14402;48.178;11.566;2023-01-01T00:22:13;68.9;;;52.6;;
26824;SDS011;14402;48.178;11.566;2023-01-01T00:22:43;69.3;;;52.5;;
26824;SDS011;14402;48.178;11.566;2023-01-01T00:23:13;69.3;;;52.5;;
26824;SDS011;14402;48.178;11.566;2023-01-01T00:23:43;69.3;;;52.5;;
26824;SDS011;14402;48.178;11.566;2023-01-01T00:24:13;67.8;;;51.8;;
26824;SDS011;14402;48.178;11.566;2023-01-01T00:24:43;66.3;;;51.0;;
26824;SDS011;14402;48.178;11.566;2023-01-01T00:25:13;66.3;;;51.0;;
26824;SDS011;14402;48.178;11.566;2023-01-01T00:25:43;66.3;;;51.0;;
26824;SDS011;14402;48.178;11.566;2023-01-01T00:26:14;65.6;;;50.1;;
26824;SDS011;14402;48.178;11.566;2023-01-01T00:26:44;64.9;;;49.2;;
26824;SDS011;14402;48.178;11.566;2023-01-01T00:27:14;64.9;;;49.2;;
26824;SDS011;14402;48.178;11.566;2023-01-01T00:27:44;64.9;;;49.2;;
26824;SDS011;14402;48.178;11.566;2023-01-01T00:28:14;66.2;;;50.2;;
26824;SDS011;14402;48.178;11.566;2023-01-01T00:28:44;67.5;;;51.2;;
26824;SDS011;14402;48.178;11.566;2023-01-01T00:29:14;67.5;;;51.2;;
26824;SDS011;14402;48.178;11.566;2023-01-01T00:29:44;67.5;;;51.2;;
26824;SDS011;14402;48.178;11.566;2023-01-01T00:30:14;65.8;;;50.1;;
26824;SDS011;14402;48.178;11.566;2023-01-01T00:30:44;64.0;;;48.9;;
26824;SDS011;14402;48.178;11.566;2023-01-01T00:31:15;64.0;;;48.9;;
26824;SDS011;14402;48.178;11.566;2023-01-01T00:31:44;64.0;;;48.9;;
26824;SDS011;14402;48.178;11.566;2023-01-01T00:32:14;59.8;;;46.6;;
26824;SDS011;14402;48.178;11.566;2023-01-01T00:32:44;55.6;;;44.2;;
26824;SDS011;14402;48.178;11.566;2023-01-01T00:33:14;55.6;;;44.2;;
26824;SDS011;14402;48.178;11.566;2023-01-01T00:33:45;55.6;;;44.2;;
26824;SDS011;14402;48.178;11.566;2023-01-01T00:34:14;55.2;;;43.0;;
26824;SDS011;14402;48.178;11.566;2023-01-01T00:34:45;54.7;;;41.7;;
26824;SDS011;14402;48.178;11.566;2023-01-01T00:35:15;54.7;;;41.7;;
26824;SDS011;14402;48.178;11.566;2023-01-01T00:35:45;54.7;;;41.7;;
26824;SDS011;14402;48.178;11.566;2023-01-01T00:36:15;56.0;;;42.1;;
26824;SDS011;14402;48.178;11.566;2023-01-01T00:36:45;57.2;;;42.5;;
26824;SDS011;14402;48.178;11.566;2023-01-01T00:37:15;57.2;;;42.5;;
26824;SDS011;14402;48.178;11.566;2023-01-01T00:37:45;57.2;;;42.5;;
26824;SDS011;14402;48.178;11.566;2023-01-01T00:38:15;55.1;;;41.6;;
26824;SDS011;14402;48.178;11.566;2023-01-01T00:38:46;52.9;;;40.7;;
26824;SDS011;14402;48.178;11.566;2023-01-01T00:39:15;52.9;;;40.7;;
26824;SDS011;14402;48.178;11.566;2023-01-01T00:39:45;52.9;;;40.7;;
26824;SDS011;14402;48.178;11.566;2023-01-01T00:40:15;49.0;;;38.0;;
26824;SDS011;14402;48.178;11.566;2023-01-01T00:40:45;45.0;;;35.3;;
26824;SDS011;14402;48.178;11.566;2023-01-01T00:41:16;45.0;;;35.3;;
26824;SDS011;14402;48.178;11.566;2023-01-01T00:41:46;45.0;;;35.3;;
26824;SDS011;14402;48.178;11.566;2023-01-01T00:42:16;46.1;;;35.5;;
26824;SDS011;14402;48.178;11.566;2023-01-01T00:42:46;47.2;;;35.7;;
26824;SDS011;14402;48.178;11.566;2023-01-01T00:43:16;47.2;;;35.7;;
26824;SDS011;14402;48.178;11.566;2023-01-01T00:43:46;47.2;;;35.7;;
26824;SDS011;14402;48.178;11.566;2023-01-01T00:44:16;43.8;;;35.1;;
26824;SDS011;14402;48.178;11.566;2023-01-01T00:44:46;40.5;;;34.4;;
26824;SDS011;14402;48.178;11.566;2023-01-01T00:45:16;40.5;;;34.4;;
26824;SDS011;14402;48.178;11.566;2023-01-01T00:45:46;40.5;;;34.4;;
26824;SDS011;14402;48.178;11.566;2023-01-01T00:46:16;42.8;;;33.1;;
26824;SDS011;14402;48.178;11.566;2023-01-01T00:46:46;45.0;;;31.8;;
26824;SDS011;14402;48.178;11.566;2023-01-01T00:47:16;45.0;;;31.8;;
26824;SDS011;14402;48.178;11.566;2023-01-01T00:47:46;45.0;;;31.8;;
26824;SDS011;14402;48.178;11.566;2023-01-01T00:48:16;42.6;;;31.6;;
26824;SDS011;14402;48.178;11.566;2023-01-01T00:48:46;40.2;;;31.4;;
26824;SDS011;14402;48.178;11.566;2023-01-01T00:49:17;40.2;;;31.4;;
26824;SDS011;14402;48.178;11.566;2023-01-01T00:49:47;40.2;;;31.4;;
26824;SDS011;14402;48.178;11.566;2023-01-01T00:50:17;38.0;;;30.0;;
26824;SDS011;14402;48.178;11.566;2023-01-01T00:50:47;35.8;;;28.6;;
26824;SDS011;14402;48.178;11.566;2023-01-01T00:51:17;35.8;;;28.6;;
26824;SDS011;14402;48.178;11.566;2023-01-01T00:51:47;35.8;;;28.6;;
26824;SDS011;14402;48.178;11.566;2023-01-01T00:52:17;35.6;;;28.4;;
26824;SDS011;14402;48.178;11.566;2023-01-01T00:52:47;35.4;;;28.1;;
26824;SDS011;14402;48.178;11.566;2023-01-01T00:53:17;35.4;;;28.1;;
26824;SDS011;14402;48.178;11.566;2023-01-01T00:53:47;35.4;;;28.1;;
26824;SDS011;14402;48.178;11.566;2023-01-01T00:54:17;36.8;;;29.9;;
26824;SDS011;14402;48.178;11.566;2023-01-01T00:54:47;38.2;;;31.7;;
26824;SDS011;14402;48.178;11.566;2023-01-01T00:55:17;38.2;;;31.7;;
26824;SDS011;14402;48.178;11.566;2023-01-01T00:55:48;38.2;;;31.7;;
26824;SDS011;14402;48.178;11.566;2023-01-01T00:56:18;38.8;;;31.7;;
26824;SDS011;14402;48.178;11.566;2023-01-01T00:56:48;39.4;;;31.6;;
26824;SDS011;14402;48.178;11.566;2023-01-01T00:57:18;39.4;;;31.6;;
26824;SDS011;14402;48.178;11.566;2023-01-01T00:57:48;39.4;;;31.6;;
26824;SDS011;14402;48.178;11.566;2023-01-01T00:58:18;38.3;;;31.2;;
26824;SDS011;14402;48.178;11.566;2023-01-01T00:58:48;37.3;;;30.9;;
26824;SDS011;14402;48.178;11.566;2023-01-01T00:59:18;37.3;;;30.9;;
26824;SDS011;14402;48.178;11.566;2023-01-01T00:59:48;37.3;;;30.9;;
26824;SDS011;14402;48.178;11.566;2023-01-01T01:00:18;38.6;;;31.1;;
26824;SDS011;14402;48.178;11.566;2023-01-01T01:00:48;39.9;;;31.4;;
26824;SDS011;14402;48.178;11.566;2023-01-01T01:01:18;39.9;;;31.4;;
26824;SDS011;14402;48.178;11.566;2023-01-01T01:01:48;39.9;;;31.4;;
26824;SDS011;14402;48.178;11.566;2023-01-01T01:02:18;36.8;;;29.8;;
26824;SDS011;14402;48.178;11.566;2023-01-01T01:02:48;33.7;;;28.3;;
26824;SDS011;14402;48.178;11.566;2023-01-01T01:03:19;33.7;;;28.3;;
26824;SDS011;14402;48.178;11.566;2023-01-01T01:03:49;33.7;;;28.3;;
26824;SDS011;14402;48.178;11.566;2023-01-01T01:04:19;32.9;;;26.4;;
26824;SDS011;14402;48.178;11.566;2023-01-01T01:04:49;32.1;;;24.5;;
26824;SDS011;14402;48.178;11.566;2023-01-01T01:05:19;32.1;;;24.5;;
26824;SDS011;14402;48.178;11.566;2023-01-01T01:05:49;32.1;;;24.5;;
26824;SDS011;14402;48.178;11.566;2023-01-01T01:06:19;29.2;;;23.0;;
26824;SDS011;14402;48.178;11.566;2023-01-01T01:06:49;26.4;;;21.5;;
26824;SDS011;14402;48.178;11.566;2023-01-01T01:07:19;26.4;;;21.5;;
26824;SDS011;14402;48.178;11.566;2023-01-01T01:07:49;26.4;;;21.5;;
26824;SDS011;14402;48.178;11.566;2023-01-01T01:08:19;25.5;;;20.5;;
26824;SDS011;14402;48.178;11.566;2023-01-01T01:08:49;24.5;;;19.4;;
26824;SDS011;14402;48.178;11.566;2023-01-01T01:09:19;24.5;;;19.4;;
26824;SDS011;14402;48.178;11.566;2023-01-01T01:09:49;24.5;;;19.4;;
26824;SDS011;14402;48.178;11.566;2023-01-01T01:10:19;41.2;;;32.4;;
26824;SDS011;14402;48.178;11.566;2023-01-01T01:10:49;57.8;;;45.4;;
26824;SDS011;14402;48.178;11.566;2023-01-01T01:11:20;57.8;;;45.4;;
26824;SDS011;14402;48.178;11.566;2023-01-01T01:11:50;57.8;;;45.4;;
26824;SDS011;14402;48.178;11.566;2023-01-01T01:12:20;41.2;;;31.9;;
26824;SDS011;14402;48.178;11.566;2023-01-01T01:12:50;24.6;;;18.4;;
26824;SDS011;14402;48.178;11.566;2023-01-01T01:13:20;24.6;;;18.4;;
26824;SDS011;14402;48.178;11.566;2023-01-01T01:13:51;24.6;;;18.4;;
26824;SDS011;14402;48.178;11.566;2023-01-01T01:14:20;27.5;;;20.3;;
26824;SDS011;14402;48.178;11.566;2023-01-01T01:14:50;30.5;;;22.2;;
26824;SDS011;14402;48.178;11.566;2023-01-01T01:15:20;30.5;;;22.2;;
26824;SDS011;14402;48.178;11.566;2023-01-01T01:15:50;30.5;;;22.2;;
26824;SDS011;14402;48.178;11.566;2023-01-01T01:16:21;25.5;;;19.5;;
26824;SDS011;14402;48.178;11.566;2023-01-01T01:16:50;20.6;;;16.9;;
26824;SDS011;14402;48.178;11.566;2023-01-01T01:17:21;20.6;;;16.9;;
26824;SDS011;14402;48.178;11.566;2023-01-01T01:17:50;20.6;;;16.9;;
26824;SDS011;14402;48.178;11.566;2023-01-01T01:18:20;20.3;;;16.4;;
26824;SDS011;14402;48.178;11.566;2023-01-01T01:18:51;20.0;;;15.9;;
26824;SDS011;14402;48.178;11.566;2023-01-01T01:19:21;20.0;;;15.9;;
26824;SDS011;14402;48.178;11.566;2023-01-01T01:19:51;20.0;;;15.9;;
26824;SDS011;14402;48.178;11.566;2023-01-01T01:20:21;20.4;;;16.0;;
26824;SDS011;14402;48.178;11.566;2023-01-01T01:20:51;20.7;;;16.2;;
26824;SDS011;14402;48.178;11.566;2023-01-01T01:21:22;20.7;;;16.2;;
26824;SDS011;14402;48.178;11.566;2023-01-01T01:21:51;20.7;;;16.2;;
26824;SDS011;14402;48.178;11.566;2023-01-01T01:22:21;22.0;;;17.5;;
26824;SDS011;14402;48.178;11.566;2023-01-01T01:22:51;23.2;;;18.7;;
26824;SDS011;14402;48.178;11.566;2023-01-01T01:23:21;23.2;;;18.7;;
26824;SDS011;14402;48.178;11.566;2023-01-01T01:23:51;23.2;;;18.7;;
26824;SDS011;14402;48.178;11.566;2023-01-01T01:24:21;21.9;;;18.0;;
26824;SDS011;14402;48.178;11.566;2023-01-01T01:24:51;20.5;;;17.2;;
26824;SDS011;14402;48.178;11.566;2023-01-01T01:25:21;20.5;;;17.2;;
26824;SDS011;14402;48.178;11.566;2023-01-01T01:25:51;20.5;;;17.2;;
26824;SDS011;14402;48.178;11.566;2023-01-01T01:26:22;21.2;;;17.3;;
26824;SDS011;14402;48.178;11.566;2023-01-01T01:26:52;22.0;;;17.4;;
26824;SDS011;14402;48.178;11.566;2023-01-01T01:27:22;22.0;;;17.4;;
26824;SDS011;14402;48.178;11.566;2023-01-01T01:27:52;22.0;;;17.4;;
26824;SDS011;14402;48.178;11.566;2023-01-01T01:28:22;22.1;;;17.0;;
26824;SDS011;14402;48.178;11.566;2023-01-01T01:28:52;22.3;;;16.6;;
26824;SDS011;14402;48.178;11.566;2023-01-01T01:29:22;22.3;;;16.6;;
26824;SDS011;14402;48.178;11.566;2023-01-01T01:29:52;22.3;;;16.6;;
26824;SDS011;14402;48.178;11.566;2023-01-01T01:30:22;25.8;;;18.6;;
26824;SDS011;14402;48.178;11.566;2023-01-01T01:30:52;29.2;;;20.6;;
26824;SDS011;14402;48.178;11.566;2023-01-01T01:31:23;29.2;;;20.6;;
26824;SDS011;14402;48.178;11.566;2023-01-01T01:31:52;29.2;;;20.6;;
26824;SDS011;14402;48.178;11.566;2023-01-01T01:32:22;23.7;;;17.8;;
26824;SDS011;14402;48.178;11.566;2023-01-01T01:32:53;18.1;;;15.0;;
26824;SDS011;14402;48.178;11.566;2023-01-01T01:33:23;18.1;;;15.0;;
26824;SDS011;14402;48.178;11.566;2023-01-01T01:33:53;18.1;;;15.0;;
26824;SDS011;14402;48.178;11.566;2023-01-01T01:34:23;19.7;;;15.8;;
26824;SDS011;14402;48.178;11.566;2023-01-01T01:34:53;21.2;;;16.6;;
26824;SDS011;14402;48.178;11.566;2023-01-01T01:35:23;21.2;;;16.6;;
26824;SDS011;14402;48.178;11.566;2023-01-01T01:35:53;21.2;;;16.6;;
26824;SDS011;14402;48.178;11.566;2023-01-01T01:36:23;22.7;;;17.5;;
26824;SDS011;14402;48.178;11.566;2023-01-01T01:36:53;24.2;;;18.5;;
26824;SDS011;14402;48.178;11.566;2023-01-01T01:37:23;24.2;;;18.5;;
26824;SDS011;14402;48.178;11.566;2023-01-01T01:37:53;24.2;;;18.5;;
26824;SDS011;14402;48.178;11.566;2023-01-01T01:38:23;23.4;;;17.9;;
26824;SDS011;14402;48.178;11.566;2023-01-01T01:38:53;22.5;;;17.3;;
26824;SDS011;14402;48.178;11.566;2023-01-01T01:39:23;22.5;;;17.3;;
26824;SDS011;14402;48.178;11.566;2023-01-01T01:39:53;22.5;;;17.3;;
26824;SDS011;14402;48.178;11.566;2023-01-01T01:40:24;24.1;;;17.4;;
26824;SDS011;14402;48.178;11.566;2023-01-01T01:40:53;25.7;;;17.5;;
26824;SDS011;14402;48.178;11.566;2023-01-01T01:41:24;25.7;;;17.5;;
26824;SDS011;14402;48.178;11.566;2023-01-01T01:41:54;25.7;;;17.5;;
26824;SDS011;14402;48.178;11.566;2023-01-01T01:42:24;24.7;;;18.0;;
26824;SDS011;14402;48.178;11.566;2023-01-01T01:42:54;23.6;;;18.5;;
26824;SDS011;14402;48.178;11.566;2023-01-01T01:43:25;23.6;;;18.5;;
26824;SDS011;14402;48.178;11.566;2023-01-01T01:43:55;23.6;;;18.5;;
26824;SDS011;14402;48.178;11.566;2023-01-01T01:44:56;21.8;;;17.6;;
26824;SDS011;14402;48.178;11.566;2023-01-01T01:44:57;20.0;;;16.8;;
26824;SDS011;14402;48.178;11.566;2023-01-01T01:45:24;20.0;;;16.8;;
26824;SDS011;14402;48.178;11.566;2023-01-01T01:45:54;20.0;;;16.8;;
26824;SDS011;14402;48.178;11.566;2023-01-01T01:46:25;19.6;;;15.2;;
26824;SDS011;14402;48.178;11.566;2023-01-01T01:46:54;19.3;;;13.6;;
26824;SDS011;14402;48.178;11.566;2023-01-01T01:47:26;19.3;;;13.6;;
26824;SDS011;14402;48.178;11.566;2023-01-01T01:47:56;19.3;;;13.6;;
26824;SDS011;14402;48.178;11.566;2023-01-01T01:48:24;17.8;;;12.9;;
26824;SDS011;14402;48.178;11.566;2023-01-01T01:48:55;16.3;;;12.2;;
26824;SDS011;14402;48.178;11.566;2023-01-01T01:49:26;16.3;;;12.2;;
26824;SDS011;14402;48.178;11.566;2023-01-01T01:49:56;16.3;;;12.2;;
26824;SDS011;14402;48.178;11.566;2023-01-01T01:50:26;16.1;;;12.1;;
26824;SDS011;14402;48.178;11.566;2023-01-01T01:50:55;15.9;;;12.1;;
26824;SDS011;14402;48.178;11.566;2023-01-01T01:51:26;15.9;;;12.1;;
26824;SDS011;14402;48.178;11.566;2023-01-01T01:51:55;15.9;;;12.1;;
26824;SDS011;14402;48.178;11.566;2023-01-01T01:52:25;17.2;;;13.2;;
26824;SDS011;14402;48.178;11.566;2023-01-01T01:52:57;18.6;;;14.4;;
26824;SDS011;14402;48.178;11.566;2023-01-01T01:53:25;18.6;;;14.4;;
26824;SDS011;14402;48.178;11.566;2023-01-01T01:53:56;18.6;;;14.4;;
26824;SDS011;14402;48.178;11.566;2023-01-01T01:54:25;19.0;;;14.6;;
26824;SDS011;14402;48.178;11.566;2023-01-01T01:54:55;19.4;;;14.8;;
26824;SDS011;14402;48.178;11.566;2023-01-01T01:55:26;19.4;;;14.8;;
26824;SDS011;14402;48.178;11.566;2023-01-01T01:55:56;19.4;;;14.8;;
26824;SDS011;14402;48.178;11.566;2023-01-01T01:56:28;18.2;;;14.1;;
26824;SDS011;14402;48.178;11.566;2023-01-01T01:56:56;17.1;;;13.4;;
26824;SDS011;14402;48.178;11.566;2023-01-01T01:57:26;17.1;;;13.4;;
26824;SDS011;14402;48.178;11.566;2023-01-01T01:57:56;17.1;;;13.4;;
26824;SDS011;14402;48.178;11.566;2023-01-01T01:58:26;15.9;;;12.9;;
26824;SDS011;14402;48.178;11.566;2023-01-01T01:58:56;14.7;;;12.3;;
26824;SDS011;14402;48.178;11.566;2023-01-01T01:59:28;14.7;;;12.3;;
26824;SDS011;14402;48.178;11.566;2023-01-01T01:59:56;14.7;;;12.3;;
26824;SDS011;14402;48.178;11.566;2023-01-01T02:00:26;15.8;;;12.7;;
26824;SDS011;14402;48.178;11.566;2023-01-01T02:00:56;16.8;;;13.1;;
26824;SDS011;14402;48.178;11.566;2023-01-01T02:01:26;16.8;;;13.1;;
26824;SDS011;14402;48.178;11.566;2023-01-01T02:01:56;16.8;;;13.1;;
26824;SDS011;14402;48.178;11.566;2023-01-01T02:02:27;16.0;;;12.4;;
26824;SDS011;14402;48.178;11.566;2023-01-01T02:02:57;15.3;;;11.6;;
26824;SDS011;14402;48.178;11.566;2023-01-01T02:03:27;15.3;;;11.6;;
26824;SDS011;14402;48.178;11.566;2023-01-01T02:03:57;15.3;;;11.6;;
26824;SDS011;14402;48.178;11.566;2023-01-01T02:04:26;16.3;;;12.9;;
26824;SDS011;14402;48.178;11.566;2023-01-01T02:04:57;17.3;;;14.1;;
26824;SDS011;14402;48.178;11.566;2023-01-01T02:05:27;17.3;;;14.1;;
26824;SDS011;14402;48.178;11.566;2023-01-01T02:05:57;17.3;;;14.1;;
26824;SDS011;14402;48.178;11.566;2023-01-01T02:06:28;19.0;;;15.2;;
26824;SDS011;14402;48.178;11.566;2023-01-01T02:06:57;20.6;;;16.3;;
26824;SDS011;14402;48.178;11.566;2023-01-01T02:07:27;20.6;;;16.3;;
26824;SDS011;14402;48.178;11.566;2023-01-01T02:07:57;20.6;;;16.3;;
26824;SDS011;14402;48.178;11.566;2023-01-01T02:08:27;20.6;;;16.3;;
26824;SDS011;14402;48.178;11.566;2023-01-01T02:08:58;20.6;;;16.4;;
26824;SDS011;14402;48.178;11.566;2023-01-01T02:09:27;20.6;;;16.4;;
26824;SDS011;14402;48.178;11.566;2023-01-01T02:09:57;20.6;;;16.4;;
26824;SDS011;14402;48.178;11.566;2023-01-01T02:10:27;18.3;;;14.4;;
26824;SDS011;14402;48.178;11.566;2023-01-01T02:10:57;16.0;;;12.3;;
26824;SDS011;14402;48.178;11.566;2023-01-01T02:11:28;16.0;;;12.3;;
26824;SDS011;14402;48.178;11.566;2023-01-01T02:11:58;16.0;;;12.3;;
26824;SDS011;14402;48.178;11.566;2023-01-01T02:12:28;13.9;;;10.9;;
26824;SDS011;14402;48.178;11.566;2023-01-01T02:12:58;11.7;;;9.5;;
26824;SDS011;14402;48.178;11.566;2023-01-01T02:13:28;11.7;;;9.5;;
26824;SDS011;14402;48.178;11.566;2023-01-01T02:13:58;11.7;;;9.5;;
26824;SDS011;14402;48.178;11.566;2023-01-01T02:14:28;14.2;;;10.9;;
26824;SDS011;14402;48.178;11.566;2023-01-01T02:14:58;16.8;;;12.2;;
26824;SDS011;14402;48.178;11.566;2023-01-01T02:15:29;16.8;;;12.2;;
26824;SDS011;14402;48.178;11.566;2023-01-01T02:15:59;16.8;;;12.2;;
26824;SDS011;14402;48.178;11.566;2023-01-01T02:16:31;16.0;;;12.1;;
26824;SDS011;14402;48.178;11.566;2023-01-01T02:17:00;15.2;;;12.0;;
26824;SDS011;14402;48.178;11.566;2023-01-01T02:17:30;15.2;;;12.0;;
26824;SDS011;14402;48.178;11.566;2023-01-01T02:17:59;15.2;;;12.0;;
26824;SDS011;14402;48.178;11.566;2023-01-01T02:18:30;15.0;;;11.9;;
26824;SDS011;14402;48.178;11.566;2023-01-01T02:19:00;14.8;;;11.8;;
26824;SDS011;14402;48.178;11.566;2023-01-01T02:19:33;14.8;;;11.8;;
26824;SDS011;14402;48.178;11.566;2023-01-01T02:20:06;14.8;;;11.8;;
26824;SDS011;14402;48.178;11.566;2023-01-01T02:20:33;15.3;;;12.5;;
26824;SDS011;14402;48.178;11.566;2023-01-01T02:21:01;15.8;;;13.1;;
26824;SDS011;14402;48.178;11.566;2023-01-01T02:21:30;15.8;;;13.1;;
26824;SDS011;14402;48.178;11.566;2023-01-01T02:22:00;15.8;;;13.1;;
26824;SDS011;14402;48.178;11.566;2023-01-01T02:22:30;15.0;;;12.5;;
26824;SDS011;14402;48.178;11.566;2023-01-01T02:23:06;14.2;;;11.9;;
26824;SDS011;14402;48.178;11.566;2023-01-01T02:23:36;14.2;;;11.9;;
26824;SDS011;14402;48.178;11.566;2023-01-01T02:24:00;14.2;;;11.9;;
26824;SDS011;14402;48.178;11.566;2023-01-01T02:24:35;14.9;;;11.8;;
26824;SDS011;14402;48.178;11.566;2023-01-01T02:25:03;15.7;;;11.7;;
26824;SDS011;14402;48.178;11.566;2023-01-01T02:25:32;15.7;;;11.7;;
26824;SDS011;14402;48.178;11.566;2023-01-01T02:26:03;15.7;;;11.7;;
26824;SDS011;14402;48.178;11.566;2023-01-01T02:26:32;14.9;;;11.4;;
26824;SDS011;14402;48.178;11.566;2023-01-01T02:27:00;14.0;;;11.2;;
26824;SDS011;14402;48.178;11.566;2023-01-01T02:27:31;14.0;;;11.2;;
26824;SDS011;14402;48.178;11.566;2023-01-01T02:28:01;14.0;;;11.2;;
26824;SDS011;14402;48.178;11.566;2023-01-01T02:28:40;15.4;;;11.2;;
26824;SDS011;14402;48.178;11.566;2023-01-01T02:29:01;16.7;;;11.2;;
26824;SDS011;14402;48.178;11.566;2023-01-01T02:29:33;16.7;;;11.2;;
26824;SDS011;14402;48.178;11.566;2023-01-01T02:30:00;16.7;;;11.2;;
26824;SDS011;14402;48.178;11.566;2023-01-01T02:30:30;16.2;;;10.9;;
26824;SDS011;14402;48.178;11.566;2023-01-01T02:31:00;15.8;;;10.7;;
26824;SDS011;14402;48.178;11.566;2023-01-01T02:31:31;15.8;;;10.7;;
26824;SDS011;14402;48.178;11.566;2023-01-01T02:32:01;15.8;;;10.7;;
26824;SDS011;14402;48.178;11.566;2023-01-01T02:32:31;14.9;;;10.6;;
26824;SDS011;14402;48.178;11.566;2023-01-01T02:33:01;14.0;;;10.5;;
26824;SDS011;14402;48.178;11.566;2023-01-01T02:33:30;14.0;;;10.5;;
26824;SDS011;14402;48.178;11.566;2023-01-01T02:34:02;14.0;;;10.5;;
26824;SDS011;14402;48.178;11.566;2023-01-01T02:34:32;14.1;;;11.0;;
26824;SDS011;14402;48.178;11.566;2023-01-01T02:35:02;14.3;;;11.5;;
26824;SDS011;14402;48.178;11.566;2023-01-01T02:35:33;14.3;;;11.5;;
26824;SDS011;14402;48.178;11.566;2023-01-01T02:36:01;14.3;;;11.5;;
26824;SDS011;14402;48.178;11.566;2023-01-01T02:36:32;15.3;;;11.6;;
26824;SDS011;14402;48.178;11.566;2023-01-01T02:37:01;16.3;;;11.6;;
26824;SDS011;14402;48.178;11.566;2023-01-01T02:37:31;16.3;;;11.6;;
26824;SDS011;14402;48.178;11.566;2023-01-01T02:38:02;16.3;;;11.6;;
26824;SDS011;14402;48.178;11.566;2023-01-01T02:38:32;17.5;;;11.6;;
26824;SDS011;14402;48.178;11.566;2023-01-01T02:39:01;18.7;;;11.7;;
26824;SDS011;14402;48.178;11.566;2023-01-01T02:39:32;18.7;;;11.7;;
26824;SDS011;14402;48.178;11.566;2023-01-01T02:40:01;18.7;;;11.7;;
26824;SDS011;14402;48.178;11.566;2023-01-01T02:40:31;16.8;;;11.5;;
26824;SDS011;14402;48.178;11.566;2023-01-01T02:41:03;14.8;;;11.4;;
26824;SDS011;14402;48.178;11.566;2023-01-01T02:41:32;14.8;;;11.4;;
26824;SDS011;14402;48.178;11.566;2023-01-01T02:42:02;14.8;;;11.4;;
26824;SDS011;14402;48.178;11.566;2023-01-01T02:42:32;15.2;;;11.8;;
26824;SDS011;14402;48.178;11.566;2023-01-01T02:43:02;15.6;;;12.2;;
26824;SDS011;14402;48.178;11.566;2023-01-01T02:43:32;15.6;;;12.2;;
26824;SDS011;14402;48.178;11.566;2023-01-01T02:44:02;15.6;;;12.2;;
26824;SDS011;14402;48.178;11.566;2023-01-01T02:44:33;16.0;;;11.7;;
26824;SDS011;14402;48.178;11.566;2023-01-01T02:45:02;16.5;;;11.2;;
26824;SDS011;14402;48.178;11.566;2023-01-01T02:45:32;16.5;;;11.2;;
26824;SDS011;14402;48.178;11.566;2023-01-01T02:46:04;16.5;;;11.2;;
26824;SDS011;14402;48.178;11.566;2023-01-01T02:46:33;16.8;;;10.9;;
26824;SDS011;14402;48.178;11.566;2023-01-01T02:47:06;17.1;;;10.6;;
26824;SDS011;14402;48.178;11.566;2023-01-01T02:47:32;17.1;;;10.6;;
26824;SDS011;14402;48.178;11.566;2023-01-01T02:48:03;17.1;;;10.6;;
26824;SDS011;14402;48.178;11.566;2023-01-01T02:48:41;15.6;;;11.2;;
26824;SDS011;14402;48.178;11.566;2023-01-01T02:49:03;14.0;;;11.8;;
26824;SDS011;14402;48.178;11.566;2023-01-01T02:49:33;14.0;;;11.8;;
26824;SDS011;14402;48.178;11.566;2023-01-01T02:50:04;14.0;;;11.8;;
26824;SDS011;14402;48.178;11.566;2023-01-01T02:50:33;15.0;;;11.6;;
26824;SDS011;14402;48.178;11.566;2023-01-01T02:51:04;16.0;;;11.5;;
26824;SDS011;14402;48.178;11.566;2023-01-01T02:51:34;16.0;;;11.5;;
26824;SDS011;14402;48.178;11.566;2023-01-01T02:52:04;16.0;;;11.5;;
26824;SDS011;14402;48.178;11.566;2023-01-01T02:52:35;16.6;;;11.2;;
26824;SDS011;14402;48.178;11.566;2023-01-01T02:53:06;17.2;;;11.0;;
26824;SDS011;14402;48.178;11.566;2023-01-01T02:53:34;17.2;;;11.0;;
26824;SDS011;14402;48.178;11.566;2023-01-01T02:54:04;17.2;;;11.0;;
26824;SDS011;14402;48.178;11.566;2023-01-01T02:54:34;16.0;;;10.9;;
26824;SDS011;14402;48.178;11.566;2023-01-01T02:55:04;14.9;;;10.7;;
26824;SDS011;14402;48.178;11.566;2023-01-01T02:55:36;14.9;;;10.7;;
26824;SDS011;14402;48.178;11.566;2023-01-01T02:56:04;14.9;;;10.7;;
26824;SDS011;14402;48.178;11.566;2023-01-01T02:56:35;14.9;;;10.9;;
26824;SDS011;14402;48.178;11.566;2023-01-01T02:57:05;14.9;;;11.2;;
26824;SDS011;14402;48.178;11.566;2023-01-01T02:57:34;14.9;;;11.2;;
26824;SDS011;14402;48.178;11.566;2023-01-01T02:58:06;14.9;;;11.2;;
26824;SDS011;14402;48.178;11.566;2023-01-01T03:02:08;13.0;;;10.7;;
26824;SDS011;14402;48.178;11.566;2023-01-01T03:02:36;14.0;;;10.9;;
26824;SDS011;14402;48.178;11.566;2023-01-01T03:03:08;15.0;;;11.0;;
26824;SDS011;14402;48.178;11.566;2023-01-01T03:03:36;15.0;;;11.0;;
26824;SDS011;14402;48.178;11.566;2023-01-01T03:04:06;15.0;;;11.0;;
26824;SDS011;14402;48.178;11.566;2023-01-01T03:04:36;14.8;;;10.9;;
26824;SDS011;14402;48.178;11.566;2023-01-01T03:05:06;14.5;;;10.9;;
26824;SDS011;14402;48.178;11.566;2023-01-01T03:05:36;14.5;;;10.9;;
26824;SDS011;14402;48.178;11.566;2023-01-01T03:06:23;14.5;;;10.9;;
26824;SDS011;14402;48.178;11.566;2023-01-01T03:06:36;14.6;;;10.2;;
26824;SDS011;14402;48.178;11.566;2023-01-01T03:07:07;14.7;;;9.5;;
26824;SDS011;14402;48.178;11.566;2023-01-01T03:07:38;14.7;;;9.5;;
26824;SDS011;14402;48.178;11.566;2023-01-01T03:08:05;14.7;;;9.5;;
26824;SDS011;14402;48.178;11.566;2023-01-01T03:08:37;14.6;;;9.9;;
26824;SDS011;14402;48.178;11.566;2023-01-01T03:09:09;14.5;;;10.2;;
26824;SDS011;14402;48.178;11.566;2023-01-01T03:09:36;14.5;;;10.2;;
26824;SDS011;14402;48.178;11.566;2023-01-01T03:10:06;14.5;;;10.2;;
26824;SDS011;14402;48.178;11.566;2023-01-01T03:10:38;13.9;;;10.0;;
26824;SDS011;14402;48.178;11.566;2023-01-01T03:11:06;13.2;;;9.8;;
26824;SDS011;14402;48.178;11.566;2023-01-01T03:11:36;13.2;;;9.8;;
26824;SDS011;14402;48.178;11.566;2023-01-01T03:12:08;13.2;;;9.8;;
26824;SDS011;14402;48.178;11.566;2023-01-01T03:12:36;12.4;;;9.6;;
26824;SDS011;14402;48.178;11.566;2023-01-01T03:13:07;11.6;;;9.4;;
26824;SDS011;14402;48.178;11.566;2023-01-01T03:13:38;11.6;;;9.4;;
26824;SDS011;14402;48.178;11.566;2023-01-01T03:14:07;11.6;;;9.4;;
26824;SDS011;14402;48.178;11.566;2023-01-01T03:14:37;12.6;;;9.5;;
26824;SDS011;14402;48.178;11.566;2023-01-01T03:15:08;13.7;;;9.6;;
26824;SDS011;14402;48.178;11.566;2023-01-01T03:15:37;13.7;;;9.6;;
26824;SDS011;14402;48.178;11.566;2023-01-01T03:16:08;13.7;;;9.6;;
26824;SDS011;14402;48.178;11.566;2023-01-01T03:16:37;13.4;;;9.4;;
26824;SDS011;14402;48.178;11.566;2023-01-01T03:17:08;13.0;;;9.2;;
26824;SDS011;14402;48.178;11.566;2023-01-01T03:17:37;13.0;;;9.2;;
26824;SDS011;14402;48.178;11.566;2023-01-01T03:18:07;13.0;;;9.2;;
26824;SDS011;14402;48.178;11.566;2023-01-01T03:18:38;12.1;;;9.0;;
26824;SDS011;14402;48.178;11.566;2023-01-01T03:19:08;11.1;;;8.9;;